createdAt,value
2023-06-22T04:01:55.956Z,79.60
2023-06-22T04:04:24.295Z,84.80
2023-06-22T04:09:20.900Z,89.40
2023-06-22T04:11:48.864Z,90.30
2023-06-22T04:16:44.860Z,91.00
2023-06-22T04:19:17.581Z,96.60
2023-06-22T04:21:46.326Z,92.60
2023-06-22T04:24:14.181Z,98.60
2023-06-22T04:26:46.359Z,94.10
2023-06-22T04:29:14.271Z,94.40
2023-06-22T04:31:42.351Z,96.10
2023-06-22T04:34:10.421Z,97.10
2023-06-22T04:36:41.463Z,97.30
2023-06-22T04:39:10.673Z,97.20
2023-06-22T04:41:44.011Z,99.90
2023-06-22T04:44:12.220Z,98.40
2023-06-22T04:46:40.696Z,99.10
2023-06-22T04:49:11.054Z,99.90
2023-06-22T04:51:42.425Z,99.90
2023-06-22T04:54:11.331Z,99.90
2023-06-22T04:56:41.699Z,99.90
2023-06-22T04:59:13.992Z,99.90
2023-06-22T05:01:42.113Z,99.90
2023-06-22T05:04:10.571Z,99.90
2023-06-22T05:06:40.831Z,99.90
2023-06-22T05:09:10.753Z,99.90
2023-06-22T05:11:38.606Z,99.90
2023-06-22T05:14:06.528Z,99.90
2023-06-22T05:16:35.790Z,99.90
2023-06-22T05:19:04.728Z,99.90
2023-06-22T05:21:34.648Z,99.90
2023-06-22T05:24:03.752Z,99.90
2023-06-22T05:26:34.032Z,99.90
2023-06-22T05:29:03.967Z,99.90
2023-06-22T05:31:32.310Z,99.90
2023-06-22T05:34:00.976Z,99.90
2023-06-22T05:36:29.093Z,99.90
2023-06-22T05:38:59.204Z,99.90
2023-06-22T05:41:27.021Z,99.90
2023-06-22T05:43:56.312Z,99.90
2023-06-22T05:46:25.609Z,99.90
2023-06-22T05:48:53.466Z,99.90
2023-06-22T05:51:21.531Z,99.90
2023-06-22T05:53:50.849Z,99.90
2023-06-22T05:56:18.970Z,99.90
2023-06-22T05:58:48.573Z,99.90
2023-06-22T06:01:17.825Z,99.90
2023-06-22T06:03:45.736Z,99.90
2023-06-22T06:06:13.878Z,99.90
2023-06-22T06:08:41.666Z,99.90
2023-06-22T06:11:09.617Z,99.90
2023-06-22T06:13:37.459Z,99.90
2023-06-22T06:16:05.626Z,99.90
2023-06-22T06:18:34.746Z,99.90
2023-06-22T06:21:02.901Z,99.90
2023-06-22T06:23:30.877Z,99.90
2023-06-22T06:25:58.713Z,99.90
2023-06-22T06:28:27.290Z,99.90
2023-06-22T06:33:25.986Z,99.90
2023-06-22T06:35:56.891Z,99.90
2023-06-22T06:38:25.015Z,99.90
2023-06-22T06:40:52.982Z,99.90
2023-06-22T06:43:20.830Z,99.90
2023-06-22T06:45:51.359Z,99.90
2023-06-22T06:48:20.353Z,99.90
2023-06-22T06:50:48.435Z,99.90
2023-06-22T06:53:17.664Z,99.90
2023-06-22T06:55:46.431Z,99.90
2023-06-22T06:58:14.467Z,99.90
2023-06-22T07:00:42.659Z,99.90
2023-06-22T07:03:11.024Z,99.90
2023-06-22T07:05:38.892Z,99.90
2023-06-22T07:08:06.972Z,99.90
2023-06-22T07:10:36.110Z,99.90
2023-06-22T07:13:03.984Z,99.90
2023-06-22T07:15:31.727Z,99.90
2023-06-22T07:17:59.563Z,99.90
2023-06-22T07:20:27.785Z,99.90
2023-06-22T07:22:56.051Z,99.90
2023-06-22T07:25:23.861Z,99.90
2023-06-22T07:28:02.309Z,99.90
2023-06-22T07:30:30.661Z,99.90
2023-06-22T07:33:04.444Z,99.90
2023-06-22T07:35:32.675Z,99.90
2023-06-22T07:38:03.060Z,99.90
2023-06-22T07:40:32.354Z,99.90
2023-06-22T07:43:01.994Z,99.90
2023-06-22T07:45:29.837Z,99.90
2023-06-22T07:47:57.722Z,99.90
2023-06-22T07:50:25.917Z,99.90
2023-06-22T07:52:54.581Z,99.90
2023-06-22T07:55:22.363Z,97.20
2023-06-22T07:57:53.061Z,99.90
2023-06-22T08:00:22.913Z,99.90
2023-06-22T08:02:50.889Z,99.90
2023-06-22T08:05:22.384Z,97.00
2023-06-22T08:08:02.436Z,94.80
2023-06-22T08:10:30.484Z,99.90
2023-06-22T08:12:58.342Z,99.90
2023-06-22T08:15:29.660Z,94.30
2023-06-22T08:17:58.936Z,99.70
2023-06-22T08:20:26.818Z,94.70
2023-06-22T08:22:56.429Z,99.90
2023-06-22T08:25:24.422Z,91.30
2023-06-22T08:27:52.281Z,95.80
2023-06-22T08:30:20.456Z,94.20
2023-06-22T08:32:49.648Z,94.80
2023-06-22T08:35:17.591Z,90.50
2023-06-22T08:37:51.649Z,95.60
2023-06-22T08:40:20.542Z,87.80
2023-06-22T08:42:48.913Z,94.40
2023-06-22T08:47:45.082Z,78.60
2023-06-22T08:50:14.524Z,82.00
2023-06-22T08:52:43.313Z,91.30
2023-06-22T08:55:12.635Z,75.90
2023-06-22T08:57:40.869Z,86.90
2023-06-22T09:00:18.155Z,74.40
2023-06-22T09:02:46.310Z,85.20
2023-06-22T09:05:16.071Z,69.30
2023-06-22T09:07:44.440Z,62.00
2023-06-22T09:10:12.623Z,62.80
2023-06-22T09:12:41.934Z,61.70
2023-06-22T09:15:27.034Z,60.50
2023-06-22T09:17:56.801Z,71.70
2023-06-22T09:20:26.189Z,58.10
2023-06-22T09:22:54.243Z,69.70
2023-06-22T09:25:22.561Z,55.70
2023-06-22T09:27:50.438Z,66.30
2023-06-22T09:30:18.366Z,58.70
2023-06-22T09:32:46.234Z,60.00
2023-06-22T09:35:14.712Z,50.60
2023-06-22T09:37:44.109Z,61.90
2023-06-22T09:40:14.152Z,47.90
2023-06-22T09:42:43.480Z,42.40
2023-06-22T09:45:11.864Z,42.00
2023-06-22T09:47:39.862Z,37.90
2023-06-22T09:50:08.932Z,35.30
2023-06-22T09:55:09.860Z,37.10
2023-06-22T09:57:37.728Z,48.00
2023-06-22T10:00:09.861Z,37.80
2023-06-22T10:02:37.780Z,46.30
2023-06-22T10:05:06.513Z,14.60
2023-06-22T10:10:17.510Z,9.20
2023-06-22T10:12:48.977Z,5.60
2023-06-22T10:15:17.246Z,2.60
2023-06-22T10:17:45.620Z,10.70
2023-06-22T10:20:14.225Z,1.00
2023-06-22T10:22:42.925Z,1.00
2023-06-22T10:25:11.532Z,1.00
2023-06-22T10:27:41.732Z,9.70
2023-06-22T10:30:10.643Z,11.50
2023-06-22T10:32:40.279Z,2.70
2023-06-22T10:35:08.856Z,1.00
2023-06-22T10:37:38.475Z,1.00
2023-06-22T10:40:09.004Z,5.70
2023-06-22T10:42:36.944Z,4.90
2023-06-22T10:45:07.073Z,1.00
2023-06-22T10:47:35.160Z,1.00
2023-06-22T10:50:03.581Z,1.00
2023-06-22T10:52:31.444Z,6.10
2023-06-22T10:54:59.563Z,1.00
2023-06-22T10:57:27.537Z,1.00
2023-06-22T10:59:55.414Z,1.00
2023-06-22T11:02:25.448Z,1.00
2023-06-22T11:04:53.381Z,1.00
2023-06-22T11:07:21.216Z,1.00
2023-06-22T11:09:49.243Z,1.00
2023-06-22T11:12:18.089Z,1.00
2023-06-22T11:14:48.875Z,1.00
2023-06-22T11:17:17.002Z,1.00
2023-06-22T11:19:46.220Z,1.00
2023-06-22T11:22:14.859Z,1.00
2023-06-22T11:24:42.808Z,1.00
2023-06-22T11:27:10.688Z,1.00
2023-06-22T11:29:40.286Z,1.00
2023-06-22T11:32:10.372Z,1.00
2023-06-22T11:34:39.408Z,1.00
2023-06-22T11:37:08.987Z,1.00
2023-06-22T11:39:42.364Z,1.00
2023-06-22T11:42:16.755Z,1.00
2023-06-22T11:44:45.339Z,1.00
2023-06-22T11:47:13.220Z,1.00
2023-06-22T11:49:41.222Z,1.00
2023-06-22T11:52:10.592Z,1.00
2023-06-22T11:54:38.522Z,1.00
2023-06-22T11:57:06.677Z,1.00
2023-06-22T11:59:34.836Z,1.00
2023-06-22T12:02:02.916Z,1.00
2023-06-22T12:04:30.805Z,1.00
2023-06-22T12:06:59.488Z,1.00
2023-06-22T12:09:28.884Z,1.00
2023-06-22T12:11:56.866Z,1.00
2023-06-22T12:14:24.715Z,1.00
2023-06-22T12:16:52.522Z,1.00
2023-06-22T12:19:20.344Z,1.00
2023-06-22T12:21:48.148Z,1.00
2023-06-22T12:24:16.052Z,1.00
2023-06-22T12:26:45.270Z,1.00
2023-06-22T12:29:13.047Z,1.00
2023-06-22T12:31:41.068Z,1.00
2023-06-22T12:34:09.198Z,1.00
2023-06-22T12:36:37.159Z,1.00
2023-06-22T12:39:05.234Z,1.00
2023-06-22T12:41:33.167Z,1.00
2023-06-22T12:44:02.356Z,1.00
2023-06-22T12:46:31.357Z,1.00
2023-06-22T12:48:59.335Z,1.00
2023-06-22T12:51:27.173Z,1.00
2023-06-22T12:53:55.058Z,1.00
2023-06-22T12:56:22.908Z,1.00
2023-06-22T12:58:50.699Z,1.00
2023-06-22T13:01:20.249Z,1.00
2023-06-22T13:03:48.129Z,1.00
2023-06-22T13:06:15.922Z,1.00
2023-06-22T13:09:19.060Z,1.00
2023-06-22T13:11:32.192Z,1.00
2023-06-22T13:13:59.984Z,1.00
2023-06-22T13:16:29.253Z,1.00
2023-06-22T13:18:57.281Z,1.00
2023-06-22T13:21:25.175Z,1.00
2023-06-22T13:23:52.956Z,1.00
2023-06-22T13:26:20.763Z,1.00
2023-06-22T13:28:48.697Z,1.00
2023-06-22T13:31:16.720Z,1.00
2023-06-22T13:33:48.831Z,1.00
2023-06-22T13:36:16.674Z,1.00
2023-06-22T13:38:44.813Z,1.00
2023-06-22T13:41:12.660Z,1.00
2023-06-22T13:43:40.504Z,1.00
2023-06-22T13:46:08.417Z,1.00
2023-06-22T13:48:36.282Z,1.00
2023-06-22T13:51:05.431Z,1.00
2023-06-22T13:53:33.253Z,1.00
2023-06-22T13:56:01.083Z,1.00
2023-06-22T13:58:29.036Z,1.00
2023-06-22T14:00:57.182Z,1.00
2023-06-22T14:03:25.154Z,1.00
2023-06-22T14:05:55.170Z,1.00
2023-06-22T14:08:41.314Z,1.00
2023-06-22T14:11:10.133Z,1.00
2023-06-22T14:13:38.070Z,1.00
2023-06-22T14:16:07.099Z,1.00
2023-06-22T14:18:34.907Z,1.00
2023-06-22T14:21:02.876Z,1.00
2023-06-22T14:23:32.159Z,1.00
2023-06-22T14:25:59.930Z,1.00
2023-06-22T14:28:28.184Z,1.00
2023-06-22T14:30:56.130Z,1.00
2023-06-22T14:33:24.089Z,1.00
2023-06-22T14:35:51.964Z,1.00
2023-06-22T14:38:19.877Z,1.00
2023-06-22T14:43:21.854Z,1.00
2023-06-22T14:45:51.488Z,1.00
2023-06-22T14:48:20.078Z,1.00
2023-06-22T14:50:47.873Z,1.00
2023-06-22T14:53:16.196Z,1.00
2023-06-22T14:55:44.016Z,1.00
2023-06-22T14:58:13.561Z,1.00
2023-06-22T15:00:41.665Z,1.00
2023-06-22T15:03:12.565Z,1.00
2023-06-22T15:05:40.647Z,1.00
2023-06-22T15:08:10.419Z,1.00
2023-06-22T15:10:39.853Z,1.00
2023-06-22T15:13:07.836Z,1.00
2023-06-22T15:15:37.105Z,1.00
2023-06-22T15:18:05.183Z,1.00
2023-06-22T15:20:33.513Z,1.00
2023-06-22T15:23:01.662Z,1.00
2023-06-22T15:25:29.755Z,1.00
2023-06-22T15:27:57.560Z,1.00
2023-06-22T15:30:25.451Z,1.00
2023-06-22T15:32:54.669Z,1.00
2023-06-22T15:35:22.601Z,1.00
2023-06-22T15:37:52.393Z,1.00
2023-06-22T15:40:20.365Z,1.00
2023-06-22T15:42:50.171Z,1.00
2023-06-22T15:45:19.729Z,1.00
2023-06-22T15:47:47.568Z,1.00
2023-06-22T15:50:16.843Z,1.00
2023-06-22T15:52:48.432Z,1.00
2023-06-22T15:55:16.368Z,1.00
2023-06-22T15:57:47.784Z,1.00
2023-06-22T16:00:17.484Z,1.00
2023-06-22T16:02:47.117Z,1.00
2023-06-22T16:05:16.722Z,1.00
2023-06-22T16:07:44.541Z,1.00
2023-06-22T16:10:14.162Z,1.00
2023-06-22T16:12:44.352Z,1.00
2023-06-22T16:15:12.703Z,1.00
2023-06-22T16:17:41.161Z,1.00
2023-06-22T16:20:11.289Z,1.00
2023-06-22T16:22:40.586Z,1.00
2023-06-22T16:25:09.027Z,1.00
2023-06-22T16:27:37.380Z,1.00
2023-06-22T16:32:33.937Z,1.00
2023-06-22T16:37:30.119Z,7.80
2023-06-22T16:39:59.362Z,30.40
2023-06-22T16:42:27.191Z,40.30
2023-06-22T16:44:55.037Z,7.40
2023-06-22T16:47:23.063Z,17.90
2023-06-22T16:49:51.396Z,15.30
2023-06-22T16:52:19.355Z,23.80
2023-06-22T16:54:59.769Z,19.80
2023-06-22T16:57:30.123Z,28.20
2023-06-22T16:59:57.906Z,35.60
2023-06-22T17:02:26.548Z,38.40
2023-06-22T17:04:55.375Z,30.30
2023-06-22T17:07:25.721Z,31.00
2023-06-22T17:09:53.739Z,33.10
2023-06-22T17:12:23.921Z,44.00
2023-06-22T17:14:54.323Z,30.40
2023-06-22T17:17:26.929Z,29.20
2023-06-22T17:19:54.936Z,38.70
2023-06-22T17:22:22.814Z,26.80
2023-06-22T17:24:52.330Z,27.90
2023-06-22T17:27:29.042Z,28.00
2023-06-22T17:30:08.267Z,25.40
2023-06-22T17:32:36.707Z,34.10
2023-06-22T17:35:05.597Z,28.20
2023-06-22T17:37:49.351Z,38.60
2023-06-22T17:40:18.216Z,40.30
2023-06-22T17:45:19.220Z,33.10
2023-06-22T17:47:50.422Z,44.00
2023-06-22T17:50:19.340Z,46.50
2023-06-22T17:52:53.969Z,47.70
2023-06-22T17:57:58.535Z,40.40
2023-06-22T18:00:28.315Z,50.40
2023-06-22T18:02:57.123Z,38.50
2023-06-22T18:05:32.249Z,40.20
2023-06-22T18:08:02.481Z,51.60
2023-06-22T18:10:37.471Z,54.80
2023-06-22T18:13:05.678Z,59.10
2023-06-22T18:15:36.175Z,52.00
2023-06-22T18:18:04.641Z,68.10
2023-06-22T18:20:34.429Z,65.70
2023-06-22T18:23:03.343Z,77.60
2023-06-22T18:25:34.523Z,61.50
2023-06-22T18:28:02.863Z,59.40
2023-06-22T18:30:31.372Z,66.50
2023-06-22T18:33:00.756Z,70.10
2023-06-22T18:35:29.312Z,62.20
2023-06-22T18:37:58.779Z,58.70
2023-06-22T18:43:01.718Z,66.10
2023-06-22T18:45:31.245Z,69.00
2023-06-22T18:48:05.555Z,78.20
2023-06-22T18:50:38.515Z,84.70
2023-06-22T18:53:06.650Z,88.50
2023-06-22T18:55:34.704Z,78.70
2023-06-22T18:58:15.833Z,90.90
2023-06-22T19:00:43.855Z,92.60
2023-06-22T19:03:30.306Z,94.00
2023-06-22T19:05:58.257Z,89.80
2023-06-22T19:08:27.680Z,95.20
2023-06-22T19:10:55.559Z,90.00
2023-06-22T19:13:29.049Z,90.00
2023-06-22T19:16:00.829Z,90.30
2023-06-22T19:18:35.933Z,90.60
2023-06-22T19:21:05.084Z,95.70
2023-06-22T19:23:37.327Z,91.40
2023-06-22T19:26:09.069Z,91.60
2023-06-22T19:28:45.751Z,90.80
2023-06-22T19:33:43.960Z,88.10
2023-06-22T19:38:41.790Z,77.00
2023-06-22T19:41:10.541Z,90.50
2023-06-22T19:43:39.751Z,79.60
2023-06-22T19:46:07.734Z,65.10
2023-06-22T19:48:35.589Z,76.80
2023-06-22T19:51:08.991Z,80.10
2023-06-22T19:56:07.822Z,80.70
2023-06-22T19:58:37.006Z,85.40
2023-06-22T20:01:05.141Z,92.50
2023-06-22T20:03:34.593Z,95.10
2023-06-22T20:06:12.110Z,95.70
2023-06-22T20:08:48.353Z,99.90
2023-06-22T20:11:24.829Z,99.90
2023-06-22T20:13:54.710Z,99.90
2023-06-22T20:16:23.702Z,99.90
2023-06-22T20:19:04.515Z,99.90
2023-06-22T20:21:39.231Z,99.90
2023-06-22T20:24:08.049Z,99.90
2023-06-22T20:26:44.446Z,99.90
2023-06-22T20:29:25.878Z,99.90
2023-06-22T20:32:05.075Z,99.90
2023-06-22T20:34:40.240Z,99.90
2023-06-22T20:37:09.560Z,99.90
2023-06-22T20:39:39.180Z,99.90
2023-06-22T20:42:07.845Z,99.90
2023-06-22T20:44:37.166Z,96.80
2023-06-22T20:47:08.751Z,93.00
2023-06-22T20:49:38.356Z,95.10
2023-06-22T20:52:09.459Z,94.30
2023-06-22T20:54:44.630Z,68.60
2023-06-22T20:59:50.500Z,65.00
2023-06-22T21:02:18.396Z,62.30
2023-06-22T21:04:53.817Z,62.70
2023-06-22T21:07:22.462Z,75.20
2023-06-22T21:09:52.524Z,73.20
2023-06-22T21:12:22.589Z,73.30
2023-06-22T21:14:50.976Z,61.70
2023-06-22T21:17:19.589Z,63.80
2023-06-22T21:19:47.484Z,77.90
2023-06-22T21:24:45.348Z,73.20
2023-06-22T21:27:14.833Z,72.10
2023-06-22T21:29:42.980Z,73.30
2023-06-22T21:32:11.331Z,89.40
2023-06-22T21:34:39.272Z,79.20
2023-06-22T21:37:07.162Z,90.80
2023-06-22T21:42:04.703Z,80.90
2023-06-22T21:44:33.880Z,86.00
2023-06-22T21:47:01.706Z,86.50
2023-06-22T21:49:29.550Z,85.30
2023-06-22T21:51:57.341Z,86.20
2023-06-22T21:54:25.110Z,89.00
2023-06-22T21:56:52.902Z,95.10
2023-06-22T21:59:20.789Z,95.30
2023-06-22T22:01:49.973Z,89.90
2023-06-22T22:04:17.885Z,90.30
2023-06-22T22:06:50.187Z,95.50
2023-06-22T22:09:18.089Z,91.70
2023-06-22T22:11:45.994Z,93.00
2023-06-22T22:14:13.767Z,94.70
2023-06-22T22:16:41.747Z,99.90
2023-06-22T22:19:10.894Z,99.90
2023-06-22T22:21:38.697Z,99.90
2023-06-22T22:24:06.709Z,95.20
2023-06-22T22:26:36.424Z,97.10
2023-06-22T22:29:04.662Z,97.40
2023-06-22T22:31:38.021Z,96.50
2023-06-22T22:34:06.703Z,95.70
2023-06-22T22:39:05.963Z,95.40
2023-06-22T22:41:33.757Z,93.20
2023-06-22T22:44:02.061Z,93.10
2023-06-22T22:46:30.219Z,91.80
2023-06-22T22:51:26.456Z,95.00
2023-06-22T22:53:55.656Z,97.00
2023-06-22T22:56:25.337Z,95.20
2023-06-22T22:58:53.180Z,95.80
2023-06-22T23:03:49.345Z,96.60
2023-06-22T23:06:17.221Z,96.60
2023-06-22T23:08:45.058Z,96.30
2023-06-22T23:11:14.244Z,95.20
2023-06-22T23:13:41.995Z,93.00
2023-06-22T23:16:09.842Z,94.10
2023-06-22T23:18:37.660Z,96.50
2023-06-22T23:21:06.244Z,96.40
2023-06-22T23:23:34.127Z,99.90
2023-06-22T23:26:02.754Z,98.10
2023-06-22T23:28:37.567Z,97.50
2023-06-22T23:31:06.804Z,98.30
2023-06-22T23:33:35.956Z,95.10
2023-06-22T23:36:05.533Z,93.40
2023-06-22T23:38:34.099Z,97.20
2023-06-22T23:43:33.378Z,95.80
2023-06-22T23:46:02.610Z,96.10
2023-06-22T23:48:30.828Z,93.70
2023-06-22T23:51:00.208Z,85.10
2023-06-22T23:53:28.495Z,81.30
2023-06-22T23:55:57.745Z,81.50
2023-06-22T23:58:26.031Z,83.10
